Brunswick, New York
Current Conditions -  °F | °C
As of 10:51 PM on Saturday 22 Nov 2014 (Local Time) from KALB Reporting Station
Light Rain Light Rain  
Wind Chill: -1°   Ceiling: 2800
Heat Index:   Visibility: 8mi
Dew Point: -2°   Wind: 10mph
Humidity: 70%   Direction: 190°S
Pressure: 30.09"   Gusts: NA
Location:  42.7478°N, 73.6049°W
Report Text: KALB 230351Z 19009KT 8SM -RA OVC028 03/M02 A3009 RMK AO2 SLP192 P0001 T00281022
Loading
Personal Weather Stations






























Interactive Weather Map New forecast layout! Learn more

10-Day Weather Forecast

Advertisements
Track Severe Weather on mobile